createdAt,value
2023-02-11T00:01:38.390Z,64.58
2023-02-11T00:04:06.498Z,64.56
2023-02-11T00:06:35.464Z,64.58
2023-02-11T00:09:02.936Z,64.56
2023-02-11T00:11:31.028Z,64.46
2023-02-11T00:13:59.803Z,64.46
2023-02-11T00:16:27.488Z,64.68
2023-02-11T00:18:54.417Z,64.77
2023-02-11T00:21:26.183Z,64.69
2023-02-11T00:23:57.354Z,64.79
2023-02-11T00:26:26.921Z,64.74
2023-02-11T00:28:54.011Z,64.86
2023-02-11T00:31:25.262Z,64.90
2023-02-11T00:33:53.220Z,64.76
2023-02-11T00:36:26.336Z,64.93
2023-02-11T00:38:56.571Z,64.88
2023-02-11T00:41:24.768Z,64.91
2023-02-11T00:43:53.946Z,64.81
2023-02-11T00:46:23.034Z,65.04
2023-02-11T00:48:52.048Z,65.03
2023-02-11T00:51:21.576Z,65.01
2023-02-11T00:53:50.527Z,64.99
2023-02-11T00:56:18.818Z,65.02
2023-02-11T00:58:45.779Z,65.00
2023-02-11T01:01:13.290Z,65.10
2023-02-11T01:03:40.767Z,65.01
2023-02-11T01:06:09.801Z,65.07
2023-02-11T01:08:39.947Z,65.16
2023-02-11T01:11:13.962Z,65.13
2023-02-11T01:13:44.958Z,65.23
2023-02-11T01:16:13.194Z,65.22
2023-02-11T01:18:42.017Z,65.13
2023-02-11T01:21:12.027Z,65.06
2023-02-11T01:23:40.479Z,65.05
2023-02-11T01:26:09.144Z,65.21
2023-02-11T01:28:36.590Z,65.24
2023-02-11T01:31:04.189Z,65.01
2023-02-11T01:33:33.823Z,65.27
2023-02-11T01:36:05.054Z,65.06
2023-02-11T01:38:33.203Z,64.99
2023-02-11T01:41:05.757Z,64.96
2023-02-11T01:43:37.720Z,65.18
2023-02-11T01:46:29.641Z,65.21
2023-02-11T01:49:12.805Z,65.03
2023-02-11T01:52:05.639Z,65.00
2023-02-11T01:54:56.771Z,64.90
2023-02-11T01:57:27.897Z,65.01
2023-02-11T01:59:59.823Z,65.12
2023-02-11T02:02:45.067Z,65.38
2023-02-11T02:05:24.367Z,65.29
2023-02-11T02:08:16.821Z,65.55
2023-02-11T02:10:48.178Z,65.55
2023-02-11T02:13:17.504Z,65.56
2023-02-11T02:16:15.614Z,65.76
2023-02-11T02:19:04.104Z,65.64
2023-02-11T02:22:10.632Z,65.70
2023-02-11T02:25:01.841Z,65.46
2023-02-11T02:27:40.606Z,65.48
2023-02-11T02:30:41.406Z,65.66
2023-02-11T02:33:23.500Z,65.52
2023-02-11T02:36:16.827Z,65.67
2023-02-11T02:39:02.169Z,65.69
2023-02-11T02:41:35.161Z,65.63
2023-02-11T02:44:02.116Z,65.48
2023-02-11T02:46:35.079Z,65.62
2023-02-11T02:49:03.712Z,65.71
2023-02-11T02:51:56.733Z,65.74
2023-02-11T02:54:36.315Z,65.66
2023-02-11T02:57:51.316Z,65.70
2023-02-11T03:00:24.769Z,65.48
2023-02-11T03:03:00.642Z,65.56
2023-02-11T03:05:57.340Z,65.52
2023-02-11T03:08:33.478Z,65.53
2023-02-11T03:11:03.499Z,65.59
2023-02-11T03:13:34.858Z,65.77
2023-02-11T03:16:19.169Z,65.71
2023-02-11T03:18:53.121Z,65.75
2023-02-11T03:21:21.755Z,65.53
2023-02-11T03:24:00.972Z,65.61
2023-02-11T03:26:38.277Z,65.56
2023-02-11T03:29:16.137Z,65.57
2023-02-11T03:32:11.722Z,65.63
2023-02-11T03:34:57.331Z,65.62
2023-02-11T03:37:41.017Z,65.74
2023-02-11T03:40:13.447Z,65.65
2023-02-11T03:42:48.991Z,65.60
2023-02-11T03:45:19.930Z,65.68
2023-02-11T03:47:52.440Z,65.81
2023-02-11T03:50:21.742Z,65.95
2023-02-11T03:52:50.765Z,65.83
2023-02-11T03:55:21.058Z,65.84
2023-02-11T03:57:48.281Z,65.71
2023-02-11T04:00:16.060Z,65.91
2023-02-11T04:02:43.569Z,65.93
2023-02-11T04:05:13.581Z,66.19
2023-02-11T04:07:40.469Z,66.16
2023-02-11T04:10:08.056Z,66.24
2023-02-11T04:12:34.930Z,66.38
2023-02-11T04:15:04.770Z,66.40
2023-02-11T04:17:31.747Z,66.35
2023-02-11T04:19:58.708Z,66.36
2023-02-11T04:22:25.974Z,66.43
2023-02-11T04:24:54.202Z,66.45
2023-02-11T04:27:21.080Z,66.24
2023-02-11T04:29:48.497Z,66.35
2023-02-11T04:32:15.645Z,66.49
2023-02-11T04:34:43.108Z,66.36
2023-02-11T04:37:09.991Z,66.61
2023-02-11T04:39:36.945Z,66.50
2023-02-11T04:42:05.713Z,66.50
2023-02-11T04:44:32.733Z,66.63
2023-02-11T04:47:00.251Z,66.53
2023-02-11T04:49:27.751Z,66.72
2023-02-11T04:51:55.194Z,66.59
2023-02-11T04:54:22.678Z,66.65
2023-02-11T04:56:51.256Z,66.76
2023-02-11T04:59:18.304Z,66.69
2023-02-11T05:01:45.289Z,66.67
2023-02-11T05:04:12.560Z,66.91
2023-02-11T05:06:40.142Z,66.76
2023-02-11T05:09:07.086Z,66.75
2023-02-11T05:11:36.824Z,66.72
2023-02-11T05:14:04.124Z,66.70
2023-02-11T05:16:31.570Z,66.64
2023-02-11T05:18:58.705Z,66.78
2023-02-11T05:21:26.423Z,66.77
2023-02-11T05:23:53.264Z,66.97
2023-02-11T05:26:20.313Z,66.91
2023-02-11T05:28:47.522Z,66.73
2023-02-11T05:31:15.045Z,66.94
2023-02-11T05:33:43.365Z,66.91
2023-02-11T05:36:13.388Z,66.89
2023-02-11T05:38:42.303Z,66.96
2023-02-11T05:41:13.532Z,66.81
2023-02-11T05:43:40.453Z,67.00
2023-02-11T05:46:08.155Z,66.93
2023-02-11T05:48:36.664Z,66.90
2023-02-11T05:51:03.887Z,66.99
2023-02-11T05:53:30.793Z,67.05
2023-02-11T05:55:57.735Z,66.97
2023-02-11T05:58:24.772Z,66.96
2023-02-11T06:00:51.755Z,66.98
2023-02-11T06:03:18.945Z,67.21
2023-02-11T06:05:46.198Z,67.06
2023-02-11T06:08:13.377Z,67.17
2023-02-11T06:10:42.646Z,67.20
2023-02-11T06:13:09.527Z,67.13
2023-02-11T06:15:36.876Z,67.13
2023-02-11T06:18:03.992Z,67.04
2023-02-11T06:20:30.839Z,67.07
2023-02-11T06:22:57.766Z,67.14
2023-02-11T06:25:25.011Z,67.17
2023-02-11T06:27:54.124Z,67.05
2023-02-11T06:30:24.257Z,67.24
2023-02-11T06:32:51.570Z,67.13
2023-02-11T06:35:18.944Z,67.12
2023-02-11T06:37:47.054Z,67.18
2023-02-11T06:40:14.192Z,67.09
2023-02-11T06:42:41.153Z,67.38
2023-02-11T06:45:13.907Z,67.36
2023-02-11T06:47:41.400Z,67.24
2023-02-11T06:50:11.341Z,67.33
2023-02-11T06:52:38.487Z,67.32
2023-02-11T06:55:05.713Z,67.13
2023-02-11T06:57:34.965Z,67.24
2023-02-11T07:00:02.886Z,67.27
2023-02-11T07:02:30.765Z,67.15
2023-02-11T07:04:57.656Z,67.23
2023-02-11T07:07:26.434Z,67.32
2023-02-11T07:09:53.247Z,67.17
2023-02-11T07:12:20.047Z,67.39
2023-02-11T07:14:46.914Z,67.43
2023-02-11T07:17:14.028Z,67.39
2023-02-11T07:19:44.128Z,67.28
2023-02-11T07:22:11.042Z,67.43
2023-02-11T07:24:41.647Z,67.28
2023-02-11T07:27:09.687Z,67.40
2023-02-11T07:29:36.852Z,67.25
2023-02-11T07:32:04.412Z,67.29
2023-02-11T07:34:31.566Z,67.28
2023-02-11T07:36:58.898Z,67.42
2023-02-11T07:39:27.680Z,67.35
2023-02-11T07:41:55.975Z,67.48
2023-02-11T07:44:24.121Z,67.32
2023-02-11T07:46:51.607Z,67.48
2023-02-11T07:49:19.677Z,67.53
2023-02-11T07:51:47.612Z,67.48
2023-02-11T07:54:14.460Z,67.53
2023-02-11T07:56:41.374Z,67.68
2023-02-11T07:59:09.222Z,67.62
2023-02-11T08:01:38.953Z,67.70
2023-02-11T08:04:05.905Z,67.65
2023-02-11T08:06:35.564Z,67.52
2023-02-11T08:09:10.984Z,67.64
2023-02-11T08:11:38.150Z,67.51
2023-02-11T08:14:05.183Z,67.46
2023-02-11T08:16:35.464Z,67.42
2023-02-11T08:19:05.784Z,67.54
2023-02-11T08:21:33.958Z,67.44
2023-02-11T08:24:02.232Z,67.46
2023-02-11T08:26:31.909Z,67.63
2023-02-11T08:28:59.315Z,67.69
2023-02-11T08:31:29.629Z,67.64
2023-02-11T08:34:00.020Z,67.54
2023-02-11T08:36:29.786Z,67.58
2023-02-11T08:39:15.909Z,67.80
2023-02-11T08:41:46.770Z,67.68
2023-02-11T08:44:13.779Z,67.66
2023-02-11T08:46:40.593Z,67.77
2023-02-11T08:49:07.776Z,67.68
2023-02-11T08:51:35.430Z,67.54
2023-02-11T08:54:02.555Z,67.84
2023-02-11T08:56:31.568Z,67.55
2023-02-11T08:58:58.632Z,67.76
2023-02-11T09:01:29.125Z,67.68
2023-02-11T09:03:57.742Z,67.56
2023-02-11T09:06:26.756Z,67.56
2023-02-11T09:08:56.724Z,67.45
2023-02-11T09:11:36.802Z,67.59
2023-02-11T09:14:04.562Z,67.59
2023-02-11T09:16:34.019Z,67.68
2023-02-11T09:19:03.753Z,67.42
2023-02-11T09:21:31.083Z,67.62
2023-02-11T09:23:58.275Z,67.62
2023-02-11T09:26:28.454Z,67.65
2023-02-11T09:28:55.533Z,67.68
2023-02-11T09:31:28.073Z,67.87
2023-02-11T09:33:58.302Z,67.56
2023-02-11T09:36:29.140Z,67.79
2023-02-11T09:38:57.730Z,67.73
2023-02-11T09:41:24.546Z,67.65
2023-02-11T09:43:57.770Z,67.88
2023-02-11T09:46:27.210Z,67.72
2023-02-11T09:48:56.647Z,67.75
2023-02-11T09:51:47.466Z,67.81
2023-02-11T09:54:27.630Z,67.72
2023-02-11T09:56:54.423Z,67.63
2023-02-11T09:59:21.856Z,67.56
2023-02-11T10:01:55.525Z,67.69
2023-02-11T10:04:35.423Z,67.64
2023-02-11T10:07:25.661Z,67.67
2023-02-11T10:09:57.081Z,67.77
2023-02-11T10:12:51.425Z,67.71
2023-02-11T10:15:30.497Z,67.74
2023-02-11T10:18:18.217Z,67.55
2023-02-11T10:20:51.435Z,67.72
2023-02-11T10:23:25.940Z,67.57
2023-02-11T10:25:54.821Z,67.67
2023-02-11T10:28:25.270Z,67.60
2023-02-11T10:31:16.059Z,67.76
2023-02-11T10:33:48.065Z,67.59
2023-02-11T10:36:17.870Z,67.71
2023-02-11T10:38:46.001Z,67.83
2023-02-11T10:41:28.395Z,68.02
2023-02-11T10:43:57.169Z,67.90
2023-02-11T10:46:29.668Z,67.92
2023-02-11T10:48:56.682Z,68.05
2023-02-11T10:51:31.303Z,68.00
2023-02-11T10:54:04.229Z,68.15
2023-02-11T10:56:54.697Z,68.16
2023-02-11T10:59:33.538Z,68.12
2023-02-11T11:02:07.077Z,68.22
2023-02-11T11:04:34.001Z,68.15
2023-02-11T11:07:18.307Z,68.00
2023-02-11T11:09:48.568Z,68.23
2023-02-11T11:12:42.032Z,68.16
2023-02-11T11:15:30.032Z,68.06
2023-02-11T11:18:22.481Z,68.32
2023-02-11T11:21:00.039Z,68.25
2023-02-11T11:23:28.230Z,68.10
2023-02-11T11:26:12.344Z,68.34
2023-02-11T11:28:52.399Z,68.35
2023-02-11T11:31:24.792Z,68.38
2023-02-11T11:33:54.390Z,68.56
2023-02-11T11:36:31.963Z,68.59
2023-02-11T11:39:02.983Z,68.54
2023-02-11T11:41:32.754Z,68.63
2023-02-11T11:44:04.436Z,68.66
2023-02-11T11:46:38.996Z,68.61
2023-02-11T11:49:25.887Z,68.61
2023-02-11T11:52:30.383Z,68.61
2023-02-11T11:55:07.988Z,68.59
2023-02-11T11:57:38.523Z,68.60
2023-02-11T12:00:14.929Z,68.67
2023-02-11T12:02:47.979Z,68.75
2023-02-11T12:05:29.380Z,68.83
2023-02-11T12:08:29.554Z,69.01
2023-02-11T12:11:23.786Z,68.82
2023-02-11T12:14:20.932Z,68.95
2023-02-11T12:17:03.560Z,68.91
2023-02-11T12:19:38.092Z,68.71
2023-02-11T12:22:10.629Z,69.07
2023-02-11T12:24:49.171Z,69.00
2023-02-11T12:27:43.329Z,69.10
2023-02-11T12:30:46.744Z,68.88
2023-02-11T12:33:25.722Z,69.09
2023-02-11T12:36:23.486Z,68.86
2023-02-11T12:38:56.337Z,69.01
2023-02-11T12:42:00.511Z,69.00
2023-02-11T12:45:03.294Z,69.08
2023-02-11T12:47:43.893Z,69.08
2023-02-11T12:50:24.831Z,69.02
2023-02-11T12:52:57.927Z,69.09
2023-02-11T12:55:28.236Z,69.06
2023-02-11T12:57:58.957Z,69.15
2023-02-11T13:00:40.639Z,68.93
2023-02-11T13:03:16.905Z,69.06
2023-02-11T13:05:52.679Z,69.09
2023-02-11T13:08:27.993Z,69.07
2023-02-11T13:11:20.244Z,69.18
2023-02-11T13:13:53.659Z,69.20
2023-02-11T13:16:39.550Z,69.15
2023-02-11T13:19:26.701Z,69.10
2023-02-11T13:22:12.788Z,68.92
2023-02-11T13:24:56.116Z,68.89
2023-02-11T13:27:48.140Z,68.88
2023-02-11T13:30:27.129Z,69.06
2023-02-11T13:32:53.937Z,68.89
2023-02-11T13:35:30.162Z,68.80
2023-02-11T13:37:58.691Z,68.82
2023-02-11T13:40:33.349Z,69.02
2023-02-11T13:43:02.747Z,69.06
2023-02-11T13:45:48.917Z,69.23
2023-02-11T13:48:27.251Z,69.15
2023-02-11T13:51:00.866Z,69.11
2023-02-11T13:53:29.346Z,68.98
2023-02-11T13:56:12.326Z,69.12
2023-02-11T13:58:48.840Z,69.27
2023-02-11T14:01:41.183Z,69.05
2023-02-11T14:04:42.491Z,68.96
2023-02-11T14:07:45.211Z,68.98
2023-02-11T14:10:43.193Z,68.90
2023-02-11T14:13:28.419Z,68.85
2023-02-11T14:16:07.550Z,69.07
2023-02-11T14:18:49.285Z,68.90
2023-02-11T14:21:29.717Z,68.97
2023-02-11T14:24:04.944Z,68.90
2023-02-11T14:26:45.852Z,68.92
2023-02-11T14:29:36.740Z,69.01
2023-02-11T14:32:28.115Z,68.87
2023-02-11T14:35:15.264Z,68.87
2023-02-11T14:38:00.787Z,68.76
2023-02-11T14:40:40.627Z,68.90
2023-02-11T14:43:35.071Z,68.92
2023-02-11T14:46:03.282Z,68.72
2023-02-11T14:48:38.228Z,68.85
2023-02-11T14:51:11.399Z,68.67
2023-02-11T14:53:43.639Z,68.82
2023-02-11T14:56:26.618Z,68.86
2023-02-11T14:58:55.255Z,68.73
2023-02-11T15:01:34.060Z,68.83
2023-02-11T15:04:06.596Z,68.64
2023-02-11T15:06:37.620Z,68.65
2023-02-11T15:09:14.614Z,68.66
2023-02-11T15:11:44.050Z,68.71
2023-02-11T15:14:19.388Z,69.03
2023-02-11T15:16:47.647Z,68.92
2023-02-11T15:19:29.016Z,69.05
2023-02-11T15:21:57.084Z,68.86
2023-02-11T15:24:32.874Z,69.10
2023-02-11T15:27:01.215Z,69.02
2023-02-11T15:29:35.071Z,69.27
2023-02-11T15:32:19.951Z,69.14
2023-02-11T15:34:48.634Z,69.07
2023-02-11T15:37:23.022Z,69.14
2023-02-11T15:39:50.666Z,69.10
2023-02-11T15:42:29.190Z,69.01
2023-02-11T15:45:26.127Z,68.98
2023-02-11T15:47:56.537Z,69.00
2023-02-11T15:50:33.327Z,69.01
2023-02-11T15:53:03.846Z,69.23
2023-02-11T15:55:31.110Z,68.98
2023-02-11T15:58:01.660Z,69.05
2023-02-11T16:00:36.246Z,69.13
2023-02-11T16:03:03.814Z,69.24
2023-02-11T16:05:34.280Z,69.02
2023-02-11T16:08:12.626Z,69.17
2023-02-11T16:10:39.528Z,69.27
2023-02-11T16:13:06.263Z,69.20
2023-02-11T16:15:39.753Z,69.08
2023-02-11T16:18:31.010Z,69.13
2023-02-11T16:21:06.538Z,69.14
2023-02-11T16:23:36.829Z,69.05
2023-02-11T16:26:09.018Z,69.06
2023-02-11T16:28:37.513Z,69.15
2023-02-11T16:31:05.379Z,68.98
2023-02-11T16:33:32.579Z,69.15
2023-02-11T16:36:02.206Z,69.18
2023-02-11T16:38:30.344Z,69.08
2023-02-11T16:40:57.330Z,69.16
2023-02-11T16:43:24.308Z,69.18
2023-02-11T16:45:51.382Z,69.17
2023-02-11T16:48:20.186Z,69.17
2023-02-11T16:50:52.237Z,69.08
2023-02-11T16:53:23.370Z,69.27
2023-02-11T16:55:51.088Z,69.11
2023-02-11T16:58:18.458Z,69.43
2023-02-11T17:00:47.493Z,69.17
2023-02-11T17:03:21.226Z,69.55
2023-02-11T17:05:55.476Z,69.36
2023-02-11T17:08:25.151Z,69.36
2023-02-11T17:10:52.275Z,69.57
2023-02-11T17:13:19.428Z,69.44
2023-02-11T17:15:46.254Z,69.46
2023-02-11T17:18:14.512Z,69.49
2023-02-11T17:20:41.605Z,69.36
2023-02-11T17:23:08.859Z,69.50
2023-02-11T17:25:37.472Z,69.60
2023-02-11T17:28:05.739Z,69.54
2023-02-11T17:30:32.862Z,69.63
2023-02-11T17:32:59.625Z,69.72
2023-02-11T17:35:26.760Z,69.80
2023-02-11T17:37:54.111Z,69.72
2023-02-11T17:40:21.045Z,69.83
2023-02-11T17:42:47.821Z,69.87
2023-02-11T17:45:14.683Z,69.91
2023-02-11T17:47:41.979Z,69.97
2023-02-11T17:50:09.260Z,69.63
2023-02-11T17:52:36.883Z,69.80
2023-02-11T17:55:05.332Z,69.98
2023-02-11T17:57:32.404Z,69.97
2023-02-11T17:59:59.151Z,69.81
2023-02-11T18:02:26.039Z,69.84
2023-02-11T18:04:53.441Z,69.83
2023-02-11T18:07:20.408Z,69.90
2023-02-11T18:09:47.161Z,69.86
2023-02-11T18:12:14.092Z,69.79
2023-02-11T18:14:41.230Z,69.94
2023-02-11T18:17:08.201Z,69.99
2023-02-11T18:19:36.673Z,69.96
2023-02-11T18:22:04.492Z,69.85
2023-02-11T18:24:31.607Z,70.02
2023-02-11T18:26:58.539Z,69.93
2023-02-11T18:29:25.558Z,69.93
2023-02-11T18:31:55.166Z,69.78
2023-02-11T18:34:22.523Z,70.04
2023-02-11T18:36:49.992Z,69.84
2023-02-11T18:39:17.348Z,69.88
2023-02-11T18:41:44.177Z,70.23
2023-02-11T18:44:14.221Z,70.12
2023-02-11T18:46:41.141Z,70.04
2023-02-11T18:49:09.924Z,70.03
2023-02-11T18:51:36.721Z,70.00
2023-02-11T18:54:03.753Z,70.10
2023-02-11T18:56:30.572Z,70.18
2023-02-11T18:58:58.322Z,69.94
2023-02-11T19:01:29.806Z,70.05
2023-02-11T19:03:58.623Z,69.92
2023-02-11T19:06:27.857Z,69.91
2023-02-11T19:08:59.562Z,69.98
2023-02-11T19:12:01.262Z,70.11
2023-02-11T19:14:31.606Z,70.10
2023-02-11T19:17:00.531Z,70.07
2023-02-11T19:19:29.944Z,70.06
2023-02-11T19:21:58.003Z,70.07
2023-02-11T19:24:25.364Z,70.24
2023-02-11T19:26:53.724Z,70.20
2023-02-11T19:29:20.720Z,70.16
2023-02-11T19:31:47.792Z,69.99
2023-02-11T19:34:16.906Z,70.12
2023-02-11T19:36:44.155Z,70.12
2023-02-11T19:39:11.325Z,70.35
2023-02-11T19:41:38.873Z,70.18
2023-02-11T19:44:07.044Z,70.32
2023-02-11T19:46:41.096Z,70.35
2023-02-11T19:49:08.370Z,70.07
2023-02-11T19:51:37.492Z,70.26
2023-02-11T19:54:04.786Z,70.47
2023-02-11T19:56:31.795Z,70.29
2023-02-11T19:58:58.847Z,70.46
2023-02-11T20:01:26.590Z,70.25
2023-02-11T20:03:54.989Z,70.36
2023-02-11T20:06:24.816Z,70.63
2023-02-11T20:08:58.621Z,70.64
2023-02-11T20:11:28.416Z,70.40
2023-02-11T20:13:56.202Z,70.54
2023-02-11T20:16:36.786Z,70.77
2023-02-11T20:19:16.927Z,70.53
2023-02-11T20:21:46.693Z,70.75
2023-02-11T20:24:13.947Z,70.56
2023-02-11T20:26:42.522Z,70.45
2023-02-11T20:29:09.771Z,70.41
2023-02-11T20:31:37.483Z,70.53
2023-02-11T20:34:07.287Z,70.48
2023-02-11T20:36:37.597Z,70.67
2023-02-11T20:39:05.770Z,70.59
2023-02-11T20:41:35.179Z,70.74
2023-02-11T20:44:05.905Z,70.43
2023-02-11T20:46:34.223Z,70.72
2023-02-11T20:49:01.903Z,70.56
2023-02-11T20:51:31.340Z,70.52
2023-02-11T20:53:58.495Z,70.51
2023-02-11T20:56:28.850Z,70.64
2023-02-11T20:58:57.944Z,70.55
2023-02-11T21:01:27.700Z,70.44
2023-02-11T21:04:00.121Z,70.54
2023-02-11T21:06:31.222Z,70.53
2023-02-11T21:08:58.133Z,70.64
2023-02-11T21:11:24.956Z,70.61
2023-02-11T21:13:51.918Z,70.67
2023-02-11T21:16:23.456Z,70.39
2023-02-11T21:18:50.578Z,70.49
2023-02-11T21:21:18.114Z,70.45
2023-02-11T21:23:45.692Z,70.53
2023-02-11T21:26:20.500Z,70.46
2023-02-11T21:28:48.824Z,70.54
2023-02-11T21:31:26.355Z,70.44
2023-02-11T21:33:59.642Z,70.42
2023-02-11T21:36:28.558Z,70.33
2023-02-11T21:38:55.427Z,70.49
2023-02-11T21:41:23.564Z,70.41
2023-02-11T21:43:51.346Z,70.56
2023-02-11T21:46:19.403Z,70.53
2023-02-11T21:48:46.511Z,70.59
2023-02-11T21:51:16.617Z,70.23
2023-02-11T21:53:43.983Z,70.32
2023-02-11T21:56:19.340Z,70.23
2023-02-11T21:58:47.712Z,70.39
2023-02-11T22:01:18.313Z,70.44
2023-02-11T22:03:46.257Z,70.42
2023-02-11T22:06:16.088Z,70.35
2023-02-11T22:08:44.071Z,70.21
2023-02-11T22:11:12.752Z,70.19
2023-02-11T22:13:41.073Z,70.53
2023-02-11T22:16:16.189Z,70.67
2023-02-11T22:18:47.105Z,70.43
2023-02-11T22:21:19.574Z,70.47
2023-02-11T22:23:46.751Z,70.70
2023-02-11T22:26:21.147Z,70.51
2023-02-11T22:28:49.245Z,70.62
2023-02-11T22:31:20.971Z,70.40
2023-02-11T22:33:49.562Z,70.42
2023-02-11T22:36:20.267Z,70.57
2023-02-11T22:38:47.851Z,70.56
2023-02-11T22:41:16.591Z,70.61
2023-02-11T22:43:44.100Z,70.48
2023-02-11T22:46:15.322Z,70.66
2023-02-11T22:48:42.764Z,70.73
2023-02-11T22:51:13.822Z,70.87
2023-02-11T22:53:40.791Z,70.70
2023-02-11T22:56:15.005Z,70.68
2023-02-11T22:58:42.293Z,70.63
2023-02-11T23:01:09.291Z,70.69
2023-02-11T23:03:36.949Z,70.50
2023-02-11T23:06:04.411Z,70.36
2023-02-11T23:08:31.963Z,70.60
2023-02-11T23:11:08.496Z,70.82
2023-02-11T23:13:37.693Z,70.68
2023-02-11T23:16:07.542Z,70.78
2023-02-11T23:18:35.985Z,70.83
2023-02-11T23:21:11.384Z,70.68
2023-02-11T23:23:39.942Z,70.47
2023-02-11T23:26:13.551Z,70.61
2023-02-11T23:28:41.586Z,70.53
2023-02-11T23:31:27.011Z,70.55
2023-02-11T23:33:55.657Z,70.83
2023-02-11T23:36:23.562Z,70.77
2023-02-11T23:38:51.364Z,70.68
2023-02-11T23:41:19.190Z,70.54
2023-02-11T23:43:54.737Z,70.75
2023-02-11T23:46:23.533Z,70.58
2023-02-11T23:48:53.310Z,70.57
2023-02-11T23:51:21.545Z,70.62
2023-02-11T23:53:53.202Z,70.67
2023-02-11T23:56:23.885Z,70.63
2023-02-11T23:58:53.175Z,70.67
